Time;durP1;ratioP1;P1;durP2;ratioP2;P2;SDS_P1;SDS_P2;PMS_P1;PMS_P2;Temp;Humidity;BMP_temperature;BMP_pressure;BME280_temperature;BME280_humidity;BME280_pressure;Samples;Min_cycle;Max_cycle;Signal;HPM_P1;HPM_P2
2022/06/04 00:00:22;;;;;;;4.40;3.63;;;;;;;;;;5015708;28;20052;-75
2022/06/04 00:02:48;;;;;;;4.38;3.75;;;;;;;;;;4997959;28;20087;-75
2022/06/04 00:05:17;;;;;;;7.53;4.15;;;;;;;;;;5015651;28;20522;-75
2022/06/04 00:07:43;;;;;;;6.03;3.95;;;;;;;;;;5015789;28;20456;-75
2022/06/04 00:15:46;;;;;;;6.22;4.65;;;;;;;;;;5015905;28;20441;-74
2022/06/04 00:18:11;;;;;;;5.63;4.93;;;;;;;;;;5015657;28;20038;-74
2022/06/04 00:20:38;;;;;;;6.00;4.93;;;;;;;;;;4997838;28;20034;-76
2022/06/04 00:23:05;;;;;;;7.00;4.75;;;;;;;;;;5015190;28;20045;-76
2022/06/04 00:25:33;;;;;;;5.50;4.47;;;;;;;;;;5015363;28;20034;-75
2022/06/04 00:28:00;;;;;;;6.07;4.43;;;;;;;;;;4997623;28;20494;-76
2022/06/04 00:30:26;;;;;;;5.88;4.32;;;;;;;;;;5015497;28;20072;-75
2022/06/04 00:32:52;;;;;;;6.03;4.20;;;;;;;;;;4997272;28;20069;-76
2022/06/04 00:35:17;;;;;;;6.45;4.25;;;;;;;;;;5015607;28;20487;-75
2022/06/04 00:37:43;;;;;;;5.00;3.67;;;;;;;;;;5015272;28;20022;-76
2022/06/04 00:40:12;;;;;;;4.30;3.90;;;;;;;;;;5015167;28;20033;-75
2022/06/04 00:42:37;;;;;;;5.72;3.95;;;;;;;;;;5014844;28;20022;-75
2022/06/04 00:45:21;;;;;;;5.05;3.75;;;;;;;;;;5015456;28;20386;-75
2022/06/04 00:47:47;;;;;;;5.90;4.25;;;;;;;;;;5013899;28;20103;-75
2022/06/04 00:50:15;;;;;;;7.80;4.07;;;;;;;;;;5014872;28;20030;-75
2022/06/04 00:52:41;;;;;;;5.45;4.25;;;;;;;;;;4996939;28;20399;-75
2022/06/04 00:55:08;;;;;;;5.60;4.00;;;;;;;;;;4997039;28;20030;-76
2022/06/04 00:57:45;;;;;;;6.00;4.13;;;;;;;;;;5014556;28;20101;-75
2022/06/04 01:00:28;;;;;;;6.30;4.40;;;;;;;;;;5015161;28;20036;-76
2022/06/04 01:03:12;;;;;;;7.15;4.40;;;;;;;;;;4996974;28;20018;-76
2022/06/04 01:06:06;;;;;;;7.60;5.50;;;;;;;;;;5014496;28;20112;-75
2022/06/04 01:08:49;;;;;;;5.65;4.25;;;;;;;;;;4993189;28;20096;-75
2022/06/04 01:11:26;;;;;;;8.52;4.75;;;;;;;;;;4996723;28;20052;-75
2022/06/04 01:13:59;;;;;;;6.82;5.10;;;;;;;;;;5014511;28;20044;-75
2022/06/04 01:16:37;;;;;;;7.47;5.88;;;;;;;;;;5014436;28;20109;-75
2022/06/04 01:19:29;;;;;;;8.63;5.85;;;;;;;;;;4996621;28;20042;-76
2022/06/04 01:22:06;;;;;;;6.82;5.65;;;;;;;;;;5014141;28;20022;-74
2022/06/04 01:24:59;;;;;;;7.50;5.90;;;;;;;;;;5014374;28;20406;-74
2022/06/04 01:27:31;;;;;;;7.18;5.78;;;;;;;;;;4996515;28;20061;-75
2022/06/04 01:30:10;;;;;;;9.18;6.10;;;;;;;;;;5014027;28;20028;-76
2022/06/04 01:32:40;;;;;;;6.75;6.07;;;;;;;;;;5013736;28;20038;-76
2022/06/04 01:35:19;;;;;;;8.25;5.80;;;;;;;;;;5014486;28;20541;-75
2022/06/04 01:37:57;;;;;;;17.33;5.68;;;;;;;;;;5014202;28;20390;-75
2022/06/04 01:43:26;;;;;;;7.72;5.60;;;;;;;;;;4999324;28;20025;-76
2022/06/04 01:45:55;;;;;;;8.80;6.15;;;;;;;;;;5014154;28;20049;-76
2022/06/04 01:48:23;;;;;;;7.72;6.40;;;;;;;;;;5014019;28;20034;-76
2022/06/04 01:50:53;;;;;;;9.68;6.63;;;;;;;;;;5013960;28;20021;-76
2022/06/04 01:53:21;;;;;;;7.13;6.40;;;;;;;;;;5014174;28;20466;-76
2022/06/04 01:55:56;;;;;;;10.93;6.90;;;;;;;;;;5013957;28;20392;-75
2022/06/04 01:58:32;;;;;;;9.57;6.85;;;;;;;;;;5013541;28;20402;-76
2022/06/04 02:01:02;;;;;;;9.57;7.60;;;;;;;;;;5013519;28;20053;-75
2022/06/04 02:03:39;;;;;;;11.93;7.80;;;;;;;;;;5013790;28;20030;-75
2022/06/04 02:06:12;;;;;;;9.23;7.35;;;;;;;;;;5013529;28;20092;-75
2022/06/04 02:08:58;;;;;;;9.00;7.57;;;;;;;;;;5013716;28;20076;-76
2022/06/04 02:11:25;;;;;;;8.07;7.25;;;;;;;;;;5013407;28;20025;-76
2022/06/04 02:13:54;;;;;;;10.23;7.85;;;;;;;;;;5013327;28;20022;-75
2022/06/04 02:16:28;;;;;;;10.75;8.57;;;;;;;;;;5013313;28;20030;-75
2022/06/04 02:18:56;;;;;;;10.10;8.25;;;;;;;;;;5013359;28;20030;-75
2022/06/04 02:21:23;;;;;;;10.88;8.23;;;;;;;;;;4995635;28;20037;-74
2022/06/04 02:23:48;;;;;;;12.73;8.52;;;;;;;;;;5013356;28;20029;-75
2022/06/04 02:26:15;;;;;;;12.38;8.15;;;;;;;;;;5013878;28;20026;-75
2022/06/04 02:28:41;;;;;;;11.82;8.35;;;;;;;;;;5013142;28;20026;-75
2022/06/04 02:31:15;;;;;;;10.38;7.65;;;;;;;;;;4996005;28;20033;-76
2022/06/04 02:33:52;;;;;;;8.88;7.97;;;;;;;;;;5012972;28;20030;-76
2022/06/04 02:36:34;;;;;;;13.50;8.25;;;;;;;;;;5013730;28;20498;-75
2022/06/04 02:39:07;;;;;;;14.80;8.60;;;;;;;;;;5013416;28;20471;-75
2022/06/04 02:41:45;;;;;;;10.93;9.02;;;;;;;;;;5013167;28;20399;-75
2022/06/04 02:44:24;;;;;;;12.77;9.50;;;;;;;;;;5013167;28;20026;-75
2022/06/04 02:47:14;;;;;;;10.93;8.95;;;;;;;;;;5013068;28;20431;-77
2022/06/04 02:50:05;;;;;;;10.75;8.68;;;;;;;;;;5013023;28;20053;-75
2022/06/04 02:52:32;;;;;;;11.27;9.20;;;;;;;;;;5012840;28;20084;-76
2022/06/04 02:55:02;;;;;;;14.05;9.75;;;;;;;;;;5013056;28;20080;-75
2022/06/04 02:57:30;;;;;;;12.80;9.57;;;;;;;;;;5012841;28;20026;-75
2022/06/04 02:59:58;;;;;;;11.55;9.00;;;;;;;;;;5012932;28;20550;-76
2022/06/04 03:02:27;;;;;;;12.48;10.20;;;;;;;;;;5012818;28;20030;-76
2022/06/04 03:04:55;;;;;;;10.88;9.75;;;;;;;;;;5013148;28;20033;-75
2022/06/04 03:07:22;;;;;;;12.70;10.15;;;;;;;;;;5013165;28;20029;-75
2022/06/04 03:09:51;;;;;;;13.73;10.00;;;;;;;;;;5012848;28;20018;-76
2022/06/04 03:12:16;;;;;;;11.15;9.48;;;;;;;;;;5014702;28;20080;-75
2022/06/04 03:14:41;;;;;;;14.57;9.70;;;;;;;;;;5016503;28;20438;-75
2022/06/04 03:17:09;;;;;;;13.43;9.50;;;;;;;;;;5016453;28;20030;-75
2022/06/04 03:19:34;;;;;;;13.73;9.82;;;;;;;;;;5016724;28;20602;-75
2022/06/04 03:22:00;;;;;;;10.60;9.10;;;;;;;;;;5016299;28;20036;-74
2022/06/04 03:24:25;;;;;;;12.07;9.93;;;;;;;;;;5016330;28;20030;-75
2022/06/04 03:26:51;;;;;;;10.88;9.73;;;;;;;;;;5016237;28;20030;-75
2022/06/04 03:29:16;;;;;;;12.05;9.80;;;;;;;;;;5016505;28;20025;-75
2022/06/04 03:31:41;;;;;;;10.20;9.00;;;;;;;;;;5016257;28;20061;-76
2022/06/04 03:34:06;;;;;;;12.67;10.90;;;;;;;;;;5016364;28;20309;-75
2022/06/04 03:36:34;;;;;;;12.38;10.70;;;;;;;;;;5016054;28;20267;-76
2022/06/04 03:39:00;;;;;;;12.07;10.15;;;;;;;;;;5015972;28;20030;-76
2022/06/04 03:41:25;;;;;;;11.50;10.30;;;;;;;;;;5015920;28;20399;-76
2022/06/04 03:43:52;;;;;;;12.65;9.75;;;;;;;;;;5015970;28;20026;-75
2022/06/04 03:46:19;;;;;;;11.65;9.77;;;;;;;;;;4998351;28;20022;-75
2022/06/04 03:48:44;;;;;;;11.95;10.60;;;;;;;;;;5016174;28;20060;-75
2022/06/04 03:51:09;;;;;;;12.38;9.75;;;;;;;;;;5015808;28;20065;-76
2022/06/04 03:53:35;;;;;;;11.15;9.88;;;;;;;;;;5015987;28;20022;-75
2022/06/04 03:56:00;;;;;;;14.40;10.10;;;;;;;;;;5015735;28;20034;-76
2022/06/04 03:58:30;;;;;;;10.73;9.63;;;;;;;;;;5015688;28;20274;-75
2022/06/04 04:00:56;;;;;;;11.25;10.07;;;;;;;;;;5015733;28;20033;-74
2022/06/04 04:03:21;;;;;;;14.20;10.32;;;;;;;;;;5015630;28;20029;-75
2022/06/04 04:05:53;;;;;;;11.98;10.60;;;;;;;;;;5016069;28;20021;-76
2022/06/04 04:08:21;;;;;;;14.10;10.55;;;;;;;;;;5016413;28;20041;-76
2022/06/04 04:10:46;;;;;;;13.05;10.52;;;;;;;;;;5015570;28;20472;-76
2022/06/04 04:13:14;;;;;;;16.33;12.15;;;;;;;;;;4997762;28;20030;-75
2022/06/04 04:15:40;;;;;;;12.50;11.10;;;;;;;;;;4997890;28;20026;-75
2022/06/04 04:18:06;;;;;;;13.88;11.02;;;;;;;;;;4997881;28;20125;-75
2022/06/04 04:20:37;;;;;;;16.92;11.77;;;;;;;;;;5015531;28;20491;-76
2022/06/04 04:23:05;;;;;;;12.88;10.73;;;;;;;;;;5014977;28;20032;-75
2022/06/04 04:25:31;;;;;;;13.88;10.18;;;;;;;;;;5015493;28;20026;-76
2022/06/04 04:27:57;;;;;;;11.13;9.82;;;;;;;;;;5015226;28;20028;-76
2022/06/04 04:30:24;;;;;;;11.18;9.85;;;;;;;;;;5015268;28;20068;-76
2022/06/04 04:32:50;;;;;;;11.77;10.23;;;;;;;;;;5014782;28;20456;-75
2022/06/04 04:35:20;;;;;;;12.20;10.05;;;;;;;;;;5014972;28;20104;-77
2022/06/04 04:37:45;;;;;;;13.02;9.82;;;;;;;;;;5015000;28;20386;-75
2022/06/04 04:40:12;;;;;;;10.73;9.63;;;;;;;;;;5014850;28;20030;-75
2022/06/04 04:42:38;;;;;;;10.95;9.73;;;;;;;;;;5014771;28;20438;-76
2022/06/04 04:45:07;;;;;;;12.48;10.05;;;;;;;;;;5015105;28;20112;-76
2022/06/04 04:47:33;;;;;;;11.95;9.70;;;;;;;;;;5014811;28;20033;-75
2022/06/04 04:49:58;;;;;;;11.95;9.95;;;;;;;;;;4997459;28;20026;-76
2022/06/04 04:52:23;;;;;;;10.98;9.82;;;;;;;;;;5014855;28;20111;-75
2022/06/04 04:54:48;;;;;;;13.23;9.33;;;;;;;;;;5014710;28;20061;-75
2022/06/04 04:57:14;;;;;;;10.73;9.47;;;;;;;;;;5014642;28;20258;-75
2022/06/04 04:59:39;;;;;;;11.23;9.43;;;;;;;;;;4980743;28;20259;-74
2022/06/04 05:02:04;;;;;;;10.50;9.40;;;;;;;;;;5014567;28;20258;-75
2022/06/04 05:04:29;;;;;;;10.80;9.67;;;;;;;;;;5014514;28;20259;-76
2022/06/04 05:06:55;;;;;;;14.02;9.40;;;;;;;;;;5014446;28;20275;-76
2022/06/04 05:09:20;;;;;;;11.17;9.33;;;;;;;;;;5014434;28;20115;-76
2022/06/04 05:11:45;;;;;;;11.13;9.23;;;;;;;;;;5014380;28;20621;-75
2022/06/04 05:14:11;;;;;;;12.40;8.93;;;;;;;;;;5014210;28;20119;-76
2022/06/04 05:16:38;;;;;;;10.60;9.50;;;;;;;;;;5014245;28;20026;-77
2022/06/04 05:19:04;;;;;;;10.85;9.10;;;;;;;;;;5014173;28;20080;-75
2022/06/04 05:21:48;;;;;;;9.82;8.73;;;;;;;;;;4996337;28;20173;-76
2022/06/04 05:24:16;;;;;;;10.40;8.75;;;;;;;;;;5014398;28;20032;-76
2022/06/04 05:26:41;;;;;;;11.70;8.90;;;;;;;;;;5014170;28;20029;-75
2022/06/04 05:29:07;;;;;;;11.60;9.07;;;;;;;;;;5014609;28;20032;-76
2022/06/04 05:31:32;;;;;;;10.57;9.47;;;;;;;;;;5013835;28;20034;-76
2022/06/04 05:33:57;;;;;;;8.73;7.83;;;;;;;;;;5013587;28;20325;-76
2022/06/04 05:36:23;;;;;;;9.80;8.80;;;;;;;;;;5014176;28;20267;-76
2022/06/04 05:38:48;;;;;;;9.55;8.10;;;;;;;;;;5014212;28;20262;-75
2022/06/04 05:41:14;;;;;;;10.83;8.07;;;;;;;;;;5013723;28;20084;-76
2022/06/04 05:43:39;;;;;;;10.63;8.32;;;;;;;;;;4996163;28;20259;-75
2022/06/04 05:46:07;;;;;;;10.00;8.88;;;;;;;;;;5013960;28;20018;-76
2022/06/04 05:48:36;;;;;;;10.20;8.55;;;;;;;;;;5013757;28;20057;-75
2022/06/04 05:51:01;;;;;;;9.98;8.23;;;;;;;;;;5013509;28;20030;-75
2022/06/04 05:53:27;;;;;;;10.57;8.20;;;;;;;;;;5013630;28;20080;-75
2022/06/04 05:55:52;;;;;;;10.85;8.23;;;;;;;;;;5013622;28;20529;-76
2022/06/04 05:58:17;;;;;;;11.02;8.52;;;;;;;;;;5013823;28;20083;-76
2022/06/04 06:00:43;;;;;;;10.93;8.80;;;;;;;;;;4995929;28;20034;-75
2022/06/04 06:03:08;;;;;;;12.88;8.38;;;;;;;;;;5013441;28;20058;-76
2022/06/04 06:05:34;;;;;;;12.80;8.93;;;;;;;;;;5013741;28;20493;-76
2022/06/04 06:07:59;;;;;;;11.23;8.18;;;;;;;;;;5013545;28;20440;-75
2022/06/04 06:10:25;;;;;;;8.27;7.50;;;;;;;;;;5013584;28;20478;-77
2022/06/04 06:12:50;;;;;;;9.77;8.52;;;;;;;;;;5013349;28;20022;-75
2022/06/04 06:15:16;;;;;;;9.65;8.10;;;;;;;;;;5013480;28;20084;-76
2022/06/04 06:17:41;;;;;;;11.48;8.60;;;;;;;;;;5013684;28;20390;-77
2022/06/04 06:20:08;;;;;;;10.10;8.23;;;;;;;;;;5013916;28;20072;-77
2022/06/04 06:22:33;;;;;;;9.40;8.32;;;;;;;;;;5013208;28;20024;-76
2022/06/04 06:24:58;;;;;;;9.35;7.72;;;;;;;;;;5013477;28;20026;-76
2022/06/04 06:27:24;;;;;;;9.65;8.27;;;;;;;;;;5013241;28;20028;-76
2022/06/04 06:29:50;;;;;;;11.30;8.30;;;;;;;;;;5013264;28;20025;-76
2022/06/04 06:32:15;;;;;;;10.03;8.07;;;;;;;;;;5013339;28;20030;-76
2022/06/04 06:34:40;;;;;;;12.77;8.70;;;;;;;;;;5013388;28;20317;-75
2022/06/04 06:37:05;;;;;;;10.87;9.07;;;;;;;;;;5013236;28;20334;-75
2022/06/04 06:39:30;;;;;;;10.33;8.83;;;;;;;;;;5013196;28;20764;-76
2022/06/04 06:41:56;;;;;;;13.18;9.60;;;;;;;;;;5013411;28;20616;-76
2022/06/04 06:44:22;;;;;;;10.47;8.70;;;;;;;;;;5013100;28;20022;-74
2022/06/04 06:46:49;;;;;;;10.73;9.55;;;;;;;;;;4998577;28;20298;-76
2022/06/04 06:49:20;;;;;;;10.52;8.82;;;;;;;;;;5017052;28;20026;-75
2022/06/04 06:52:06;;;;;;;9.23;8.30;;;;;;;;;;5017154;28;20097;-75
2022/06/04 06:54:34;;;;;;;11.70;7.93;;;;;;;;;;4999167;28;20041;-76
2022/06/04 06:57:01;;;;;;;9.57;7.70;;;;;;;;;;5016931;28;20097;-75
2022/06/04 06:59:27;;;;;;;9.48;8.20;;;;;;;;;;4999439;28;20026;-76
2022/06/04 07:01:53;;;;;;;9.68;7.90;;;;;;;;;;5016833;28;20037;-76
2022/06/04 07:04:21;;;;;;;9.10;8.20;;;;;;;;;;5016572;28;20037;-75
2022/06/04 07:06:49;;;;;;;11.50;8.32;;;;;;;;;;4998833;28;20018;-76
2022/06/04 07:09:21;;;;;;;11.35;7.45;;;;;;;;;;5016976;28;20026;-76
2022/06/04 07:11:47;;;;;;;10.02;7.95;;;;;;;;;;5016920;28;20044;-75
2022/06/04 07:14:12;;;;;;;8.27;7.32;;;;;;;;;;5016843;28;20026;-75
2022/06/04 07:16:38;;;;;;;8.48;7.63;;;;;;;;;;5016548;28;20033;-75
2022/06/04 07:19:05;;;;;;;7.75;6.95;;;;;;;;;;5016479;28;20080;-76
2022/06/04 07:21:31;;;;;;;11.35;6.90;;;;;;;;;;5016466;28;20026;-75
2022/06/04 07:23:56;;;;;;;8.70;6.88;;;;;;;;;;4998764;28;20025;-74
2022/06/04 07:26:22;;;;;;;9.93;7.07;;;;;;;;;;5016673;28;20449;-76
2022/06/04 07:28:48;;;;;;;8.05;6.90;;;;;;;;;;5016342;28;20407;-76
2022/06/04 07:31:15;;;;;;;8.20;7.40;;;;;;;;;;5016365;28;20018;-75
2022/06/04 07:33:45;;;;;;;8.63;7.57;;;;;;;;;;4998538;28;20038;-75
2022/06/04 07:36:16;;;;;;;8.13;6.70;;;;;;;;;;4998656;28;20456;-75
2022/06/04 07:38:41;;;;;;;7.38;6.63;;;;;;;;;;5016180;28;20036;-74
2022/06/04 07:41:06;;;;;;;6.82;6.13;;;;;;;;;;5016109;28;20108;-75
2022/06/04 07:43:32;;;;;;;11.07;6.93;;;;;;;;;;5015907;28;20072;-76
2022/06/04 07:45:57;;;;;;;8.20;7.03;;;;;;;;;;5016389;28;20298;-75
2022/06/04 07:48:22;;;;;;;8.53;7.33;;;;;;;;;;5015970;28;20256;-74
2022/06/04 07:50:48;;;;;;;8.57;7.03;;;;;;;;;;5016631;28;20358;-75
2022/06/04 07:53:13;;;;;;;9.57;7.38;;;;;;;;;;4998100;28;20025;-74
2022/06/04 07:55:40;;;;;;;8.35;6.43;;;;;;;;;;5016098;28;20038;-75
2022/06/04 07:58:06;;;;;;;7.32;6.53;;;;;;;;;;5015444;28;20076;-76
2022/06/04 08:00:31;;;;;;;7.70;6.05;;;;;;;;;;5015890;28;20124;-76
2022/06/04 08:02:57;;;;;;;8.32;6.28;;;;;;;;;;5015438;28;20018;-76
2022/06/04 08:05:22;;;;;;;7.38;6.00;;;;;;;;;;5015683;28;20395;-76
2022/06/04 08:07:47;;;;;;;10.10;6.67;;;;;;;;;;5015669;28;20116;-76
2022/06/04 08:10:13;;;;;;;6.93;5.97;;;;;;;;;;4998745;28;20259;-75
2022/06/04 08:12:49;;;;;;;14.50;6.23;;;;;;;;;;5015544;28;20283;-75
2022/06/04 08:15:14;;;;;;;8.25;6.95;;;;;;;;;;5015778;28;20255;-75
2022/06/04 08:17:40;;;;;;;8.07;6.40;;;;;;;;;;4998101;28;20505;-76
2022/06/04 08:20:06;;;;;;;7.15;6.45;;;;;;;;;;5015596;28;20390;-75
2022/06/04 08:22:31;;;;;;;9.85;6.32;;;;;;;;;;5015419;28;20029;-76
2022/06/04 08:24:56;;;;;;;6.60;5.88;;;;;;;;;;5015487;28;20026;-77
2022/06/04 08:27:23;;;;;;;9.98;5.78;;;;;;;;;;5015784;28;20433;-76
2022/06/04 08:29:48;;;;;;;6.75;5.82;;;;;;;;;;5015794;28;20445;-75
2022/06/04 08:32:13;;;;;;;7.72;6.32;;;;;;;;;;5015273;28;20038;-76
2022/06/04 08:34:39;;;;;;;10.23;6.67;;;;;;;;;;5015249;28;20018;-76
2022/06/04 08:37:06;;;;;;;9.13;6.13;;;;;;;;;;5015101;28;20267;-75
2022/06/04 08:39:31;;;;;;;6.97;5.95;;;;;;;;;;5015320;28;20153;-76
2022/06/04 08:42:11;;;;;;;7.70;6.07;;;;;;;;;;5015280;28;20072;-76
2022/06/04 08:44:42;;;;;;;7.18;6.20;;;;;;;;;;5015444;28;20025;-76
2022/06/04 08:47:26;;;;;;;10.20;6.28;;;;;;;;;;5015076;28;20103;-75
2022/06/04 08:49:58;;;;;;;7.27;6.47;;;;;;;;;;5015389;28;20030;-76
2022/06/04 08:52:31;;;;;;;9.15;6.20;;;;;;;;;;5014891;28;20025;-75
2022/06/04 08:57:59;;;;;;;9.93;6.70;;;;;;;;;;5014974;28;20040;-76
2022/06/04 09:00:30;;;;;;;;;;;;;;;;;;5015425;28;20034;-75
2022/06/04 09:03:13;;;;;;;7.43;6.38;;;;;;;;;;4997171;28;20448;-75
2022/06/04 09:06:15;;;;;;;7.20;6.50;;;;;;;;;;5014981;28;20029;-76
2022/06/04 09:08:48;;;;;;;8.60;6.90;;;;;;;;;;5013958;28;20089;-76
2022/06/04 09:11:25;;;;;;;7.57;6.25;;;;;;;;;;5014671;28;20033;-76
2022/06/04 09:14:07;;;;;;;8.85;6.88;;;;;;;;;;5014855;28;20026;-76
2022/06/04 09:16:38;;;;;;;7.47;6.78;;;;;;;;;;5014636;28;20541;-76
2022/06/04 09:19:17;;;;;;;8.48;6.35;;;;;;;;;;5014796;28;20030;-75
2022/06/04 09:21:42;;;;;;;7.63;6.20;;;;;;;;;;4996800;28;20029;-74
2022/06/04 09:24:09;;;;;;;8.85;6.70;;;;;;;;;;5014317;28;20036;-76
2022/06/04 09:26:47;;;;;;;9.57;6.82;;;;;;;;;;5014351;28;20041;-76
2022/06/04 09:29:24;;;;;;;13.35;7.03;;;;;;;;;;5014613;28;20116;-76
2022/06/04 09:32:03;;;;;;;10.40;6.30;;;;;;;;;;5014143;28;20026;-76
2022/06/04 09:34:37;;;;;;;6.85;6.05;;;;;;;;;;5014298;28;20053;-76
2022/06/04 09:37:05;;;;;;;8.98;6.32;;;;;;;;;;5014313;28;20029;-75
2022/06/04 09:39:33;;;;;;;7.78;6.22;;;;;;;;;;5014134;28;20038;-76
2022/06/04 09:42:11;;;;;;;7.72;5.63;;;;;;;;;;5014063;28;20563;-77
2022/06/04 09:44:48;;;;;;;9.10;6.22;;;;;;;;;;5013993;28;20022;-76
2022/06/04 09:47:20;;;;;;;9.90;6.40;;;;;;;;;;5014059;28;20053;-76
2022/06/04 09:49:58;;;;;;;8.50;6.05;;;;;;;;;;5014178;28;20087;-76
2022/06/04 09:52:35;;;;;;;6.53;5.72;;;;;;;;;;4996119;28;20026;-74
2022/06/04 09:55:20;;;;;;;9.38;5.70;;;;;;;;;;5013958;28;20030;-75
2022/06/04 09:58:28;;;;;;;6.13;5.45;;;;;;;;;;4996480;28;20032;-76
2022/06/04 10:01:03;;;;;;;6.82;5.70;;;;;;;;;;5001504;28;20384;-76
2022/06/04 10:03:31;;;;;;;7.07;5.13;;;;;;;;;;5013969;28;20061;-76
2022/06/04 10:06:02;;;;;;;7.05;5.00;;;;;;;;;;5014164;28;20541;-76
2022/06/04 10:08:29;;;;;;;6.65;4.78;;;;;;;;;;5014112;28;20026;-76
2022/06/04 10:11:04;;;;;;;6.82;4.93;;;;;;;;;;4996015;28;20406;-75
2022/06/04 10:13:45;;;;;;;7.00;5.65;;;;;;;;;;5014004;28;20471;-75
2022/06/04 10:16:42;;;;;;;6.88;4.75;;;;;;;;;;5013696;28;20108;-76
2022/06/04 10:19:13;;;;;;;8.52;4.95;;;;;;;;;;5013855;28;20029;-76
2022/06/04 10:21:41;;;;;;;5.40;4.82;;;;;;;;;;5013171;28;20113;-76
2022/06/04 10:24:28;;;;;;;5.82;4.95;;;;;;;;;;5013955;28;20025;-76
2022/06/04 10:27:22;;;;;;;6.05;4.82;;;;;;;;;;5013567;28;20558;-76
2022/06/04 10:30:02;;;;;;;7.47;4.68;;;;;;;;;;5014053;28;20487;-75
2022/06/04 10:33:01;;;;;;;7.13;4.57;;;;;;;;;;5013035;28;20495;-75
2022/06/04 10:35:43;;;;;;;7.63;5.00;;;;;;;;;;5013525;28;20108;-75
2022/06/04 10:38:21;;;;;;;5.20;3.95;;;;;;;;;;5013522;28;20103;-75
2022/06/04 10:40:56;;;;;;;4.15;3.65;;;;;;;;;;4995599;28;20025;-75
2022/06/04 10:44:01;;;;;;;8.45;3.80;;;;;;;;;;5013131;28;20146;-76
2022/06/04 10:47:03;;;;;;;9.10;4.25;;;;;;;;;;5013260;28;20034;-76
2022/06/04 10:49:45;;;;;;;7.10;3.72;;;;;;;;;;5013503;28;20034;-76
2022/06/04 10:52:23;;;;;;;6.40;4.13;;;;;;;;;;5013367;28;20028;-77
2022/06/04 10:55:00;;;;;;;5.72;3.95;;;;;;;;;;5013209;28;20028;-76
2022/06/04 10:57:34;;;;;;;8.73;4.00;;;;;;;;;;5013433;28;20054;-76
2022/06/04 11:00:08;;;;;;;5.43;4.20;;;;;;;;;;5012880;28;20097;-74
2022/06/04 11:02:54;;;;;;;9.73;4.50;;;;;;;;;;5012926;28;20064;-75
2022/06/04 11:05:25;;;;;;;5.95;4.40;;;;;;;;;;5012981;28;20026;-75
2022/06/04 11:07:57;;;;;;;8.57;4.60;;;;;;;;;;5013150;28;20060;-75
2022/06/04 11:10:33;;;;;;;7.20;4.63;;;;;;;;;;4995356;28;20030;-75
2022/06/04 11:13:09;;;;;;;6.53;4.68;;;;;;;;;;5012961;28;20080;-76
2022/06/04 11:15:44;;;;;;;7.70;4.80;;;;;;;;;;4995938;28;20519;-75
2022/06/04 11:18:17;;;;;;;8.85;5.10;;;;;;;;;;5013111;28;20073;-75
2022/06/04 11:20:58;;;;;;;5.28;4.75;;;;;;;;;;5013140;28;20026;-77
2022/06/04 11:23:38;;;;;;;7.93;5.15;;;;;;;;;;5013033;28;20084;-76
2022/06/04 11:26:19;;;;;;;9.02;4.88;;;;;;;;;;5012775;28;20510;-77
2022/06/04 11:28:45;;;;;;;9.80;8.15;;;;;;;;;;5013153;28;20022;-75
2022/06/04 11:31:28;;;;;;;8.52;6.88;;;;;;;;;;5012804;28;20391;-76
2022/06/04 11:34:04;;;;;;;6.30;5.68;;;;;;;;;;5015805;28;20441;-75
2022/06/04 11:36:49;;;;;;;7.07;5.15;;;;;;;;;;5015894;28;20068;-76
2022/06/04 11:39:32;;;;;;;7.07;6.25;;;;;;;;;;5016169;28;20454;-75
2022/06/04 11:42:20;;;;;;;7.00;5.55;;;;;;;;;;5016256;28;20037;-75
2022/06/04 11:45:34;;;;;;;6.90;5.43;;;;;;;;;;4970270;28;20398;-76
2022/06/04 11:48:39;;;;;;;7.80;6.40;;;;;;;;;;5015968;28;20036;-76
2022/06/04 11:51:28;;;;;;;9.85;6.38;;;;;;;;;;5015879;28;20728;-76
2022/06/04 11:54:17;;;;;;;9.50;6.22;;;;;;;;;;5015838;28;20045;-75
2022/06/04 11:56:57;;;;;;;9.18;7.00;;;;;;;;;;4998203;28;20390;-76
2022/06/04 11:59:36;;;;;;;7.78;6.85;;;;;;;;;;5016369;28;20110;-75
2022/06/04 12:02:43;;;;;;;9.80;7.32;;;;;;;;;;5015752;28;20092;-75
2022/06/04 12:05:35;;;;;;;8.13;6.85;;;;;;;;;;4968409;28;20040;-76
2022/06/04 12:08:07;;;;;;;9.45;6.65;;;;;;;;;;5015817;28;20080;-76
2022/06/04 12:10:49;;;;;;;8.93;6.88;;;;;;;;;;5015512;28;20475;-77
2022/06/04 12:13:25;;;;;;;13.85;6.97;;;;;;;;;;5015458;28;20113;-75
2022/06/04 12:16:10;;;;;;;8.30;5.95;;;;;;;;;;5016334;28;20387;-78
2022/06/04 12:19:00;;;;;;;7.82;6.25;;;;;;;;;;5015422;28;20079;-77
2022/06/04 12:24:38;;;;;;;8.45;6.90;;;;;;;;;;5015631;28;20157;-77
2022/06/04 12:27:21;;;;;;;9.27;6.40;;;;;;;;;;5015187;28;20399;-75
2022/06/04 12:29:55;;;;;;;6.40;5.80;;;;;;;;;;5015541;28;20101;-77
2022/06/04 12:32:24;;;;;;;7.72;5.85;;;;;;;;;;5014953;28;20376;-77
2022/06/04 12:35:19;;;;;;;8.25;6.45;;;;;;;;;;5015039;28;20053;-76
2022/06/04 12:37:54;;;;;;;8.57;6.05;;;;;;;;;;5015574;28;20029;-76
2022/06/04 12:40:19;;;;;;;6.90;6.20;;;;;;;;;;5015149;28;20104;-76
2022/06/04 12:42:58;;;;;;;9.07;6.25;;;;;;;;;;5014927;28;20102;-77
2022/06/04 12:45:38;;;;;;;8.02;6.20;;;;;;;;;;5015197;28;20046;-77
2022/06/04 12:48:21;;;;;;;7.60;5.90;;;;;;;;;;5015151;28;20022;-77
2022/06/04 12:50:50;;;;;;;10.20;5.50;;;;;;;;;;5015089;28;20391;-76
2022/06/04 12:53:21;;;;;;;6.90;6.20;;;;;;;;;;5014904;28;20112;-77
2022/06/04 12:55:53;;;;;;;6.20;5.60;;;;;;;;;;5014768;28;20032;-75
2022/06/04 12:58:34;;;;;;;6.95;6.22;;;;;;;;;;5014956;28;20061;-76
2022/06/04 13:01:16;;;;;;;11.35;6.05;;;;;;;;;;5014703;28;20021;-76
2022/06/04 13:03:43;;;;;;;12.20;6.07;;;;;;;;;;4996913;28;20025;-76
2022/06/04 13:06:22;;;;;;;7.30;5.82;;;;;;;;;;5014483;28;20479;-77
2022/06/04 13:08:59;;;;;;;9.02;5.90;;;;;;;;;;5014753;28;20026;-77
2022/06/04 13:11:36;;;;;;;6.68;5.72;;;;;;;;;;5014901;28;20104;-77
2022/06/04 13:14:29;;;;;;;6.60;5.90;;;;;;;;;;5014575;28;20037;-76
2022/06/04 13:16:58;;;;;;;7.22;5.63;;;;;;;;;;5014485;28;20025;-75
2022/06/04 13:19:55;;;;;;;6.53;5.88;;;;;;;;;;5014313;28;20021;-74
2022/06/04 13:22:32;;;;;;;6.57;5.82;;;;;;;;;;4960335;28;20626;-76
2022/06/04 13:24:59;;;;;;;9.52;6.53;;;;;;;;;;4996627;28;20033;-77
2022/06/04 13:27:52;;;;;;;8.80;6.20;;;;;;;;;;5014428;28;20022;-76
2022/06/04 13:30:25;;;;;;;9.57;6.63;;;;;;;;;;4987189;28;20521;-77
2022/06/04 13:32:50;;;;;;;10.63;6.43;;;;;;;;;;5013765;28;20068;-76
2022/06/04 13:35:19;;;;;;;9.25;6.60;;;;;;;;;;5013976;28;20498;-77
2022/06/04 13:37:45;;;;;;;8.50;6.35;;;;;;;;;;5014452;28;20018;-76
2022/06/04 13:40:25;;;;;;;10.73;6.60;;;;;;;;;;5013977;28;20030;-76
2022/06/04 13:42:54;;;;;;;10.02;6.00;;;;;;;;;;5013980;28;20017;-75
2022/06/04 13:45:32;;;;;;;7.20;6.50;;;;;;;;;;5014024;28;20120;-76
2022/06/04 13:48:18;;;;;;;9.50;6.10;;;;;;;;;;5014058;28;20112;-77
2022/06/04 13:50:55;;;;;;;8.80;7.05;;;;;;;;;;4996125;28;20064;-76
2022/06/04 13:53:23;;;;;;;7.85;6.28;;;;;;;;;;5013532;28;20030;-76
2022/06/04 13:56:06;;;;;;;8.35;6.35;;;;;;;;;;5012935;28;20030;-76
2022/06/04 13:58:34;;;;;;;8.80;6.73;;;;;;;;;;5013733;28;20022;-76
2022/06/04 14:01:09;;;;;;;8.95;6.43;;;;;;;;;;4996153;28;20517;-76
2022/06/04 14:03:46;;;;;;;8.15;6.80;;;;;;;;;;5014009;28;20505;-74
2022/06/04 14:06:12;;;;;;;8.52;6.57;;;;;;;;;;5013516;28;20033;-73
2022/06/04 14:08:52;;;;;;;7.78;6.97;;;;;;;;;;5013420;28;20025;-73
2022/06/04 14:11:20;;;;;;;9.73;6.70;;;;;;;;;;5013324;28;20068;-72
2022/06/04 14:14:17;;;;;;;8.48;6.30;;;;;;;;;;5013288;28;20029;-72
2022/06/04 14:16:55;;;;;;;11.40;7.40;;;;;;;;;;5013439;28;20026;-73
2022/06/04 14:19:38;;;;;;;8.38;7.25;;;;;;;;;;5013577;28;20124;-74
2022/06/04 14:22:16;;;;;;;10.83;8.97;;;;;;;;;;5013459;28;20049;-73
2022/06/04 14:25:14;;;;;;;10.25;7.90;;;;;;;;;;4996445;28;20018;-80
2022/06/04 14:28:10;;;;;;;9.70;8.70;;;;;;;;;;5013093;28;20527;-76
2022/06/04 14:30:47;;;;;;;8.80;7.90;;;;;;;;;;4985129;28;20045;-76
2022/06/04 14:33:22;;;;;;;11.18;8.13;;;;;;;;;;5012833;28;20100;-76
2022/06/04 14:35:57;;;;;;;10.20;7.78;;;;;;;;;;4995441;28;20025;-76
2022/06/04 14:38:24;;;;;;;11.88;7.63;;;;;;;;;;5013140;28;20042;-76
2022/06/04 14:41:20;;;;;;;11.50;8.05;;;;;;;;;;5013088;28;20072;-77
2022/06/04 14:44:18;;;;;;;8.93;8.02;;;;;;;;;;5013201;28;20030;-77
2022/06/04 14:46:46;;;;;;;11.18;7.97;;;;;;;;;;5013086;28;20029;-77
2022/06/04 14:49:26;;;;;;;9.23;7.57;;;;;;;;;;5013032;28;20029;-77
2022/06/04 14:52:28;;;;;;;11.13;7.85;;;;;;;;;;5013232;28;20034;-76
2022/06/04 14:54:58;;;;;;;8.98;8.05;;;;;;;;;;5013585;28;20411;-77
2022/06/04 14:57:42;;;;;;;9.73;7.82;;;;;;;;;;5012900;28;20160;-77
2022/06/04 15:00:24;;;;;;;8.73;7.82;;;;;;;;;;4995354;28;20026;-76
2022/06/04 15:02:57;;;;;;;10.23;8.68;;;;;;;;;;4995299;28;20030;-77
2022/06/04 15:05:33;;;;;;;11.68;8.68;;;;;;;;;;5013181;28;20036;-76
2022/06/04 15:08:10;;;;;;;9.38;8.10;;;;;;;;;;5014765;28;20028;-77
2022/06/04 15:10:58;;;;;;;11.18;8.40;;;;;;;;;;5016819;28;20042;-77
2022/06/04 15:13:49;;;;;;;8.60;7.70;;;;;;;;;;5017089;28;20022;-77
2022/06/04 15:16:27;;;;;;;10.75;8.20;;;;;;;;;;5016850;28;20427;-77
2022/06/04 15:19:20;;;;;;;11.15;8.27;;;;;;;;;;5017092;28;20045;-77
2022/06/04 15:21:59;;;;;;;8.50;7.20;;;;;;;;;;4998855;28;20026;-76
2022/06/04 15:24:40;;;;;;;17.48;13.00;;;;;;;;;;5016602;28;20034;-77
2022/06/04 15:27:30;;;;;;;10.07;7.55;;;;;;;;;;5016512;28;20022;-76